createdAt,value
2016-09-26T00:00:09.060Z,1017.85
2016-09-26T00:00:19.057Z,1017.9
2016-09-26T00:00:29.054Z,1017.86
2016-09-26T00:00:39.047Z,1017.88
2016-09-26T00:00:49.042Z,1017.91
2016-09-26T00:00:59.035Z,1017.83
2016-09-26T00:01:09.032Z,1017.9
2016-09-26T00:01:19.027Z,1017.87
2016-09-26T00:01:29.023Z,1017.84
2016-09-26T00:01:39.019Z,1017.89
2016-09-26T00:01:49.012Z,1017.89
2016-09-26T00:01:59.008Z,1017.87
2016-09-26T00:02:09.003Z,1017.85
2016-09-26T00:02:19.000Z,1017.9
2016-09-26T00:02:28.993Z,1017.87
2016-09-26T00:02:38.990Z,1017.85
2016-09-26T00:02:49.013Z,1017.85
2016-09-26T00:02:58.994Z,1017.89
2016-09-26T00:03:08.974Z,1017.87
2016-09-26T00:03:18.968Z,1017.9
2016-09-26T00:03:28.964Z,1017.89
2016-09-26T00:03:38.974Z,1017.88
2016-09-26T00:03:48.954Z,1017.87
2016-09-26T00:03:58.948Z,1017.83
2016-09-26T00:04:08.960Z,1017.9
2016-09-26T00:04:18.940Z,1017.83
2016-09-26T00:04:28.935Z,1017.84
2016-09-26T00:04:38.928Z,1017.86
2016-09-26T00:04:48.926Z,1017.87
2016-09-26T00:04:58.950Z,1017.85
2016-09-26T00:05:08.915Z,1017.85
2016-09-26T00:05:18.911Z,1017.8
2016-09-26T00:05:28.905Z,1017.84
2016-09-26T00:05:38.902Z,1017.86
2016-09-26T00:05:48.900Z,1017.84
2016-09-26T00:05:58.892Z,1017.86
2016-09-26T00:06:08.884Z,1017.85
2016-09-26T00:06:18.881Z,1017.86
2016-09-26T00:06:28.879Z,1017.88
2016-09-26T00:06:38.872Z,1017.82
2016-09-26T00:06:48.867Z,1017.88
2016-09-26T00:06:58.862Z,1017.81
2016-09-26T00:07:08.858Z,1017.88
2016-09-26T00:07:18.850Z,1017.84
2016-09-26T00:07:28.849Z,1017.84
2016-09-26T00:07:38.841Z,1017.82
2016-09-26T00:07:48.838Z,1017.86
2016-09-26T00:07:58.832Z,1017.86
2016-09-26T00:08:08.829Z,1017.89
2016-09-26T00:08:18.825Z,1017.84
2016-09-26T00:08:28.821Z,1017.86
2016-09-26T00:08:38.821Z,1017.86
2016-09-26T00:08:48.808Z,1017.82
2016-09-26T00:08:58.804Z,1017.83
2016-09-26T00:09:08.801Z,1017.86
2016-09-26T00:09:18.797Z,1017.88
2016-09-26T00:09:28.790Z,1017.89
2016-09-26T00:09:38.786Z,1017.85
2016-09-26T00:09:48.781Z,1017.85
2016-09-26T00:09:58.783Z,1017.88
2016-09-26T00:10:08.774Z,1017.83
2016-09-26T00:10:18.767Z,1017.84
2016-09-26T00:10:28.767Z,1017.81
2016-09-26T00:10:38.757Z,1017.84
2016-09-26T00:10:48.750Z,1017.82
2016-09-26T00:10:58.747Z,1017.82
2016-09-26T00:11:08.741Z,1017.84
2016-09-26T00:11:18.737Z,1017.81
2016-09-26T00:11:28.733Z,1017.8
2016-09-26T00:11:38.727Z,1017.83
2016-09-26T00:11:48.724Z,1017.85
2016-09-26T00:11:58.715Z,1017.81
2016-09-26T00:12:08.712Z,1017.81
2016-09-26T00:12:18.708Z,1017.82
2016-09-26T00:12:28.702Z,1017.82
2016-09-26T00:12:38.696Z,1017.81
2016-09-26T00:12:48.693Z,1017.78
2016-09-26T00:12:58.692Z,1017.76
2016-09-26T00:13:08.685Z,1017.77
2016-09-26T00:13:18.678Z,1017.76
2016-09-26T00:13:28.673Z,1017.78
2016-09-26T00:13:38.668Z,1017.82
2016-09-26T00:13:48.665Z,1017.82
2016-09-26T00:13:58.659Z,1017.79
2016-09-26T00:14:08.654Z,1017.81
2016-09-26T00:14:18.649Z,1017.81
2016-09-26T00:14:28.643Z,1017.82
2016-09-26T00:14:38.638Z,1017.78
2016-09-26T00:14:48.637Z,1017.8
2016-09-26T00:14:58.629Z,1017.78
2016-09-26T00:15:08.960Z,1017.79
2016-09-26T00:15:18.619Z,1017.76
2016-09-26T00:15:28.616Z,1017.76
2016-09-26T00:15:38.611Z,1017.76
2016-09-26T00:15:48.607Z,1017.81
2016-09-26T00:15:58.600Z,1017.79
2016-09-26T00:16:08.596Z,1017.76
2016-09-26T00:16:18.590Z,1017.79
2016-09-26T00:16:28.589Z,1017.79
2016-09-26T00:16:38.579Z,1017.81
2016-09-26T00:16:48.577Z,1017.79
2016-09-26T00:16:58.572Z,1017.74
2016-09-26T00:17:08.567Z,1017.8
2016-09-26T00:17:18.563Z,1017.78
2016-09-26T00:17:28.556Z,1017.77
2016-09-26T00:17:38.552Z,1017.79
2016-09-26T00:17:48.548Z,1017.76
2016-09-26T00:17:58.552Z,1017.8
2016-09-26T00:18:08.539Z,1017.81
2016-09-26T00:18:18.532Z,1017.77
2016-09-26T00:18:28.528Z,1017.81
2016-09-26T00:18:38.525Z,1017.78
2016-09-26T00:18:48.520Z,1017.83
2016-09-26T00:18:58.513Z,1017.79
2016-09-26T00:19:08.509Z,1017.79
2016-09-26T00:19:18.502Z,1017.82
2016-09-26T00:19:28.500Z,1017.82
2016-09-26T00:19:38.493Z,1017.84
2016-09-26T00:19:48.487Z,1017.86
2016-09-26T00:19:58.485Z,1017.83
2016-09-26T00:20:08.479Z,1017.8
2016-09-26T00:20:18.473Z,1017.79
2016-09-26T00:20:28.469Z,1017.83
2016-09-26T00:20:38.463Z,1017.86
2016-09-26T00:20:48.460Z,1017.82
2016-09-26T00:20:58.456Z,1017.88
2016-09-26T00:21:08.451Z,1017.82
2016-09-26T00:21:18.446Z,1017.86
2016-09-26T00:21:28.441Z,1017.83
2016-09-26T00:21:38.437Z,1017.83
2016-09-26T00:21:48.433Z,1017.84
2016-09-26T00:21:58.427Z,1017.75
2016-09-26T00:22:08.422Z,1017.83
2016-09-26T00:22:18.419Z,1017.82
2016-09-26T00:22:28.411Z,1017.88
2016-09-26T00:22:38.406Z,1017.86
2016-09-26T00:22:48.402Z,1017.82
2016-09-26T00:22:58.397Z,1017.85
2016-09-26T00:23:08.392Z,1017.88
2016-09-26T00:23:18.387Z,1017.88
2016-09-26T00:23:28.383Z,1017.88
2016-09-26T00:23:38.376Z,1017.85
2016-09-26T00:23:48.372Z,1017.92
2016-09-26T00:23:58.367Z,1017.92
2016-09-26T00:24:08.361Z,1017.86
2016-09-26T00:24:18.358Z,1017.84
2016-09-26T00:24:28.354Z,1017.89
2016-09-26T00:24:38.347Z,1017.88
2016-09-26T00:24:48.343Z,1017.86
2016-09-26T00:24:58.337Z,1017.87
2016-09-26T00:25:08.344Z,1017.87
2016-09-26T00:25:18.330Z,1017.9
2016-09-26T00:25:28.339Z,1017.89
2016-09-26T00:25:38.324Z,1017.91
2016-09-26T00:25:48.314Z,1017.88
2016-09-26T00:25:58.309Z,1017.87
2016-09-26T00:26:08.303Z,1017.88
2016-09-26T00:26:18.301Z,1017.89
2016-09-26T00:26:28.294Z,1017.87
2016-09-26T00:26:38.291Z,1017.91
2016-09-26T00:26:48.284Z,1017.87
2016-09-26T00:26:58.289Z,1017.86
2016-09-26T00:27:08.275Z,1017.89
2016-09-26T00:27:18.270Z,1017.85
2016-09-26T00:27:28.266Z,1017.93
2016-09-26T00:27:38.261Z,1017.89
2016-09-26T00:27:48.257Z,1017.88
2016-09-26T00:27:58.252Z,1017.89
2016-09-26T00:28:08.248Z,1017.89
2016-09-26T00:28:18.240Z,1017.89
2016-09-26T00:28:28.238Z,1017.92
2016-09-26T00:28:38.233Z,1017.91
2016-09-26T00:28:48.227Z,1017.87
2016-09-26T00:28:58.223Z,1017.88
2016-09-26T00:29:08.217Z,1017.9
2016-09-26T00:29:18.213Z,1017.91
2016-09-26T00:29:28.207Z,1017.9
2016-09-26T00:29:38.202Z,1017.91
2016-09-26T00:29:48.199Z,1017.89
2016-09-26T00:29:58.191Z,1017.9
2016-09-26T00:30:08.187Z,1017.9
2016-09-26T00:30:18.183Z,1017.88
2016-09-26T00:30:28.176Z,1017.88
2016-09-26T00:30:38.173Z,1017.9
2016-09-26T00:30:48.168Z,1017.91
2016-09-26T00:30:58.165Z,1017.95
2016-09-26T00:31:08.159Z,1017.91
2016-09-26T00:31:18.153Z,1017.88
2016-09-26T00:31:28.150Z,1017.91
2016-09-26T00:31:38.144Z,1017.9
2016-09-26T00:31:48.140Z,1017.92
2016-09-26T00:31:58.137Z,1017.97
2016-09-26T00:32:08.128Z,1017.94
2016-09-26T00:32:18.125Z,1017.92
2016-09-26T00:32:28.122Z,1017.9
2016-09-26T00:32:38.114Z,1017.91
2016-09-26T00:32:48.108Z,1017.87
2016-09-26T00:32:58.112Z,1017.91
2016-09-26T00:33:08.101Z,1017.94
2016-09-26T00:33:18.117Z,1017.9
2016-09-26T00:33:28.090Z,1017.99
2016-09-26T00:33:38.085Z,1017.96
2016-09-26T00:33:48.080Z,1017.95
2016-09-26T00:33:58.077Z,1017.93
2016-09-26T00:34:08.072Z,1017.89
2016-09-26T00:34:18.068Z,1017.92
2016-09-26T00:34:28.063Z,1017.93
2016-09-26T00:34:38.059Z,1017.94
2016-09-26T00:34:48.052Z,1018
2016-09-26T00:34:58.048Z,1017.93
2016-09-26T00:35:08.044Z,1017.94
2016-09-26T00:35:18.038Z,1017.94
2016-09-26T00:35:28.033Z,1017.95
2016-09-26T00:35:38.029Z,1017.98
2016-09-26T00:35:48.022Z,1017.95
2016-09-26T00:35:58.024Z,1017.95
2016-09-26T00:36:08.014Z,1017.94
2016-09-26T00:36:18.008Z,1017.95
2016-09-26T00:36:28.003Z,1017.95
2016-09-26T00:36:37.999Z,1017.92
2016-09-26T00:36:47.994Z,1017.95
2016-09-26T00:36:57.990Z,1017.96
2016-09-26T00:37:07.982Z,1017.95
2016-09-26T00:37:17.979Z,1018
2016-09-26T00:37:27.975Z,1018.01
2016-09-26T00:37:37.969Z,1017.99
2016-09-26T00:37:47.967Z,1017.97
2016-09-26T00:37:57.961Z,1018.03
2016-09-26T00:38:07.955Z,1017.97
2016-09-26T00:38:17.958Z,1017.98
2016-09-26T00:38:27.946Z,1018.01
2016-09-26T00:38:37.943Z,1018.02
2016-09-26T00:38:47.935Z,1018
2016-09-26T00:38:57.932Z,1018.01
2016-09-26T00:39:07.924Z,1018.03
2016-09-26T00:39:17.921Z,1017.95
2016-09-26T00:39:27.916Z,1017.98
2016-09-26T00:39:37.911Z,1018
2016-09-26T00:39:47.904Z,1018
2016-09-26T00:39:57.901Z,1018.01
2016-09-26T00:40:07.896Z,1017.99
2016-09-26T00:40:17.893Z,1018.05
2016-09-26T00:40:27.886Z,1018.04
2016-09-26T00:40:37.881Z,1018.02
2016-09-26T00:40:47.877Z,1017.98
2016-09-26T00:40:57.874Z,1017.98
2016-09-26T00:41:07.867Z,1017.97
2016-09-26T00:41:17.866Z,1018.02
2016-09-26T00:41:27.859Z,1017.98
2016-09-26T00:41:37.854Z,1017.99
2016-09-26T00:41:47.846Z,1018
2016-09-26T00:41:57.843Z,1017.99
2016-09-26T00:42:07.837Z,1017.98
2016-09-26T00:42:17.834Z,1018.01
2016-09-26T00:42:27.828Z,1018.02
2016-09-26T00:42:37.825Z,1018.03
2016-09-26T00:42:47.828Z,1018.03
2016-09-26T00:42:57.812Z,1018.03
2016-09-26T00:43:07.809Z,1018.02
2016-09-26T00:43:17.802Z,1017.99
2016-09-26T00:43:27.799Z,1018.05
2016-09-26T00:43:37.796Z,1018.02
2016-09-26T00:43:47.791Z,1018.02
2016-09-26T00:43:57.785Z,1018.03
2016-09-26T00:44:07.782Z,1018.08
2016-09-26T00:44:17.775Z,1018.03
2016-09-26T00:44:27.772Z,1018.01
2016-09-26T00:44:37.766Z,1018.05
2016-09-26T00:44:47.763Z,1018.08
2016-09-26T00:44:57.755Z,1018.04
2016-09-26T00:45:07.750Z,1018.03
2016-09-26T00:45:17.748Z,1018.09
2016-09-26T00:45:27.740Z,1018.07
2016-09-26T00:45:37.735Z,1018.03
2016-09-26T00:45:47.731Z,1018.05
2016-09-26T00:45:57.726Z,1018.05
2016-09-26T00:46:07.721Z,1018.06
2016-09-26T00:46:17.717Z,1018.03
2016-09-26T00:46:27.712Z,1018.09
2016-09-26T00:46:37.707Z,1018.05
2016-09-26T00:46:47.702Z,1018.07
2016-09-26T00:46:57.699Z,1018.1
2016-09-26T00:47:07.693Z,1018.05
2016-09-26T00:47:17.687Z,1018.05
2016-09-26T00:47:27.683Z,1018.12
2016-09-26T00:47:37.677Z,1018.08
2016-09-26T00:47:47.673Z,1018.05
2016-09-26T00:47:57.669Z,1018.05
2016-09-26T00:48:07.663Z,1018.01
2016-09-26T00:48:17.659Z,1018.09
2016-09-26T00:48:27.656Z,1018.03
2016-09-26T00:48:37.649Z,1018.05
2016-09-26T00:48:47.644Z,1018.03
2016-09-26T00:48:57.639Z,1018.03
2016-09-26T00:49:07.632Z,1018.02
2016-09-26T00:49:17.629Z,1018
2016-09-26T00:49:27.622Z,1018.03
2016-09-26T00:49:37.620Z,1018.07
2016-09-26T00:49:47.615Z,1018.07
2016-09-26T00:49:57.945Z,1018.05
2016-09-26T00:50:07.607Z,1017.99
2016-09-26T00:50:17.600Z,1018.02
2016-09-26T00:50:27.595Z,1018.06
2016-09-26T00:50:37.591Z,1017.99
2016-09-26T00:50:47.592Z,1018.08
2016-09-26T00:50:57.582Z,1018.03
2016-09-26T00:51:07.578Z,1018.01
2016-09-26T00:51:17.569Z,1018.03
2016-09-26T00:51:27.570Z,1018.08
2016-09-26T00:51:37.561Z,1018.01
2016-09-26T00:51:47.554Z,1018.01
2016-09-26T00:51:57.550Z,1018.01
2016-09-26T00:52:07.545Z,1018.01
2016-09-26T00:52:17.540Z,1018.02
2016-09-26T00:52:27.537Z,1018.04
2016-09-26T00:52:37.531Z,1018.05
2016-09-26T00:52:47.527Z,1018.04
2016-09-26T00:52:57.522Z,1018
2016-09-26T00:53:07.516Z,1018.07
2016-09-26T00:53:17.514Z,1018.03
2016-09-26T00:53:27.507Z,1018.01
2016-09-26T00:53:37.502Z,1018.04
2016-09-26T00:53:47.503Z,1018.01
2016-09-26T00:53:57.497Z,1018.05
2016-09-26T00:54:07.489Z,1018.02
2016-09-26T00:54:17.485Z,1018.08
2016-09-26T00:54:27.479Z,1018.09
2016-09-26T00:54:37.473Z,1018.05
2016-09-26T00:54:47.467Z,1018.07
2016-09-26T00:54:57.461Z,1018.06
2016-09-26T00:55:07.459Z,1018.04
2016-09-26T00:55:17.455Z,1018.02
2016-09-26T00:55:27.449Z,1018.09
2016-09-26T00:55:37.444Z,1018.06
2016-09-26T00:55:47.440Z,1018.05
2016-09-26T00:55:57.435Z,1018.04
2016-09-26T00:56:07.428Z,1018.06
2016-09-26T00:56:17.425Z,1018.1
2016-09-26T00:56:27.420Z,1018.05
2016-09-26T00:56:37.415Z,1018.09
2016-09-26T00:56:47.411Z,1018.03
2016-09-26T00:56:57.406Z,1018.07
2016-09-26T00:57:07.400Z,1018.13
2016-09-26T00:57:17.395Z,1018.06
2016-09-26T00:57:27.390Z,1018.04
2016-09-26T00:57:37.385Z,1018.02
2016-09-26T00:57:47.382Z,1018.06
2016-09-26T00:57:57.374Z,1018.06
2016-09-26T00:58:07.373Z,1018.05
2016-09-26T00:58:17.367Z,1018.03
2016-09-26T00:58:27.361Z,1018.04
2016-09-26T00:58:37.355Z,1018.04
2016-09-26T00:58:47.353Z,1018.07
2016-09-26T00:58:57.347Z,1018.01
2016-09-26T00:59:07.343Z,1017.99
2016-09-26T00:59:17.336Z,1018.02
2016-09-26T00:59:27.333Z,1018.04
2016-09-26T00:59:37.326Z,1018.03
2016-09-26T00:59:47.323Z,1018.01
2016-09-26T00:59:57.316Z,1018.03
2016-09-26T01:00:07.315Z,1018.06
2016-09-26T01:00:17.308Z,1017.99
2016-09-26T01:00:27.304Z,1018.05
2016-09-26T01:00:37.299Z,1018.03
2016-09-26T01:00:47.295Z,1018.03
2016-09-26T01:00:57.296Z,1018.04
2016-09-26T01:01:07.284Z,1018.04
2016-09-26T01:01:17.616Z,1017.97
2016-09-26T01:01:27.272Z,1018.05
2016-09-26T01:01:37.269Z,1018.03
2016-09-26T01:01:47.600Z,1018.03
2016-09-26T01:01:57.259Z,1018.05
2016-09-26T01:02:07.255Z,1018.04
2016-09-26T01:02:17.251Z,1018.05
2016-09-26T01:02:27.246Z,1018.05
2016-09-26T01:02:37.239Z,1018.03
2016-09-26T01:02:47.236Z,1018.02
2016-09-26T01:02:57.231Z,1018.03
2016-09-26T01:03:07.226Z,1018.05
2016-09-26T01:03:17.218Z,1018.06
2016-09-26T01:03:27.215Z,1018.07
2016-09-26T01:03:37.210Z,1018.05
2016-09-26T01:03:47.204Z,1018.04
2016-09-26T01:03:57.202Z,1018.07
2016-09-26T01:04:07.195Z,1018.06
2016-09-26T01:04:17.192Z,1018.05
2016-09-26T01:04:27.183Z,1018.05
2016-09-26T01:04:37.182Z,1018.03
2016-09-26T01:04:47.177Z,1018.05
2016-09-26T01:04:57.172Z,1018.08
2016-09-26T01:05:07.167Z,1018.04
2016-09-26T01:05:17.162Z,1018.03
2016-09-26T01:05:27.156Z,1018.05
2016-09-26T01:05:37.149Z,1018.05
2016-09-26T01:05:47.148Z,1018.07
2016-09-26T01:05:57.143Z,1018.04
2016-09-26T01:06:07.138Z,1018.08
2016-09-26T01:06:17.137Z,1018.06
2016-09-26T01:06:27.129Z,1018.08
2016-09-26T01:06:37.130Z,1018.02
2016-09-26T01:06:47.120Z,1018.03
2016-09-26T01:06:57.115Z,1018.01
2016-09-26T01:07:07.107Z,1018.11
2016-09-26T01:07:17.104Z,1018.1
2016-09-26T01:07:27.099Z,1018.06
2016-09-26T01:07:37.095Z,1018
2016-09-26T01:07:47.089Z,1018.02
2016-09-26T01:07:57.082Z,1018.08
2016-09-26T01:08:07.079Z,1018
2016-09-26T01:08:17.074Z,1018.02
2016-09-26T01:08:27.071Z,1018.06
2016-09-26T01:08:37.065Z,1018.02
2016-09-26T01:08:47.058Z,1018.01
2016-09-26T01:08:57.056Z,1018.01
2016-09-26T01:09:07.051Z,1018.03
2016-09-26T01:09:17.045Z,1018.04
2016-09-26T01:09:27.040Z,1018
2016-09-26T01:09:37.034Z,1018.01
2016-09-26T01:09:47.031Z,1018.03
2016-09-26T01:09:57.028Z,1018.03
2016-09-26T01:10:07.022Z,1018.02
2016-09-26T01:10:17.016Z,1018.02
2016-09-26T01:10:27.010Z,1018.05
2016-09-26T01:10:37.006Z,1018.01
2016-09-26T01:10:47.001Z,1018.04
2016-09-26T01:10:56.996Z,1018.02
2016-09-26T01:11:06.989Z,1018
2016-09-26T01:11:16.988Z,1018.04
2016-09-26T01:11:26.981Z,1018.06
2016-09-26T01:11:36.979Z,1018.04
2016-09-26T01:11:46.972Z,1018.02
2016-09-26T01:11:56.968Z,1018.04
2016-09-26T01:12:06.963Z,1018.06
2016-09-26T01:12:16.957Z,1018.04
2016-09-26T01:12:26.954Z,1018.03
2016-09-26T01:12:36.948Z,1018.05
2016-09-26T01:12:46.942Z,1018
2016-09-26T01:12:56.938Z,1018.05
2016-09-26T01:13:06.940Z,1018.07
2016-09-26T01:13:16.928Z,1018.04
2016-09-26T01:13:26.925Z,1018.07
2016-09-26T01:13:36.918Z,1018.01
2016-09-26T01:13:46.915Z,1018.03
2016-09-26T01:13:56.909Z,1018.02
2016-09-26T01:14:06.906Z,1018.06
2016-09-26T01:14:16.900Z,1018.07
2016-09-26T01:14:26.892Z,1018.02
2016-09-26T01:14:36.895Z,1018.03
2016-09-26T01:14:46.885Z,1018.08
2016-09-26T01:14:56.879Z,1018.07
2016-09-26T01:15:06.876Z,1018.03
2016-09-26T01:15:16.884Z,1018.05
2016-09-26T01:15:26.866Z,1018
2016-09-26T01:15:36.867Z,1017.99
2016-09-26T01:15:46.856Z,1018.08
2016-09-26T01:15:56.851Z,1018.05
2016-09-26T01:16:06.845Z,1018.04
2016-09-26T01:16:16.862Z,1018.05
2016-09-26T01:16:26.835Z,1018.07
2016-09-26T01:16:36.829Z,1018.07
2016-09-26T01:16:46.827Z,1018
2016-09-26T01:16:56.821Z,1018.09
2016-09-26T01:17:06.815Z,1018.07
2016-09-26T01:17:16.811Z,1018.04
2016-09-26T01:17:26.804Z,1018.06
2016-09-26T01:17:36.801Z,1018.07
2016-09-26T01:17:46.797Z,1018.06
2016-09-26T01:17:56.792Z,1018.03
2016-09-26T01:18:06.788Z,1018.02
2016-09-26T01:18:16.782Z,1018.02
2016-09-26T01:18:26.777Z,1018.04
2016-09-26T01:18:36.771Z,1018.1
2016-09-26T01:18:46.767Z,1018.06
2016-09-26T01:18:56.764Z,1018.03
2016-09-26T01:19:06.758Z,1018.06
2016-09-26T01:19:16.754Z,1018.11
2016-09-26T01:19:26.751Z,1018.08
2016-09-26T01:19:36.744Z,1018.07
2016-09-26T01:19:46.737Z,1018.11
2016-09-26T01:19:56.733Z,1018.04
2016-09-26T01:20:06.729Z,1018.05
2016-09-26T01:20:16.723Z,1018.09
2016-09-26T01:20:26.718Z,1018.07
2016-09-26T01:20:36.712Z,1018.12
2016-09-26T01:20:46.708Z,1018.04
2016-09-26T01:20:56.707Z,1018.14
2016-09-26T01:21:06.699Z,1018.1
2016-09-26T01:21:16.693Z,1018.13
2016-09-26T01:21:26.690Z,1018.12
2016-09-26T01:21:36.683Z,1018.13
2016-09-26T01:21:46.678Z,1018.13
2016-09-26T01:21:56.674Z,1018.13
2016-09-26T01:22:06.672Z,1018.13
2016-09-26T01:22:16.667Z,1018.14
2016-09-26T01:22:26.660Z,1018.11
2016-09-26T01:22:36.655Z,1018.12
2016-09-26T01:22:46.650Z,1018.14
2016-09-26T01:22:56.645Z,1018.16
2016-09-26T01:23:06.648Z,1018.13
2016-09-26T01:23:16.634Z,1018.13
2016-09-26T01:23:26.631Z,1018.15
2016-09-26T01:23:36.627Z,1018.15
2016-09-26T01:23:46.621Z,1018.15
2016-09-26T01:23:56.616Z,1018.15
2016-09-26T01:24:06.611Z,1018.14
2016-09-26T01:24:16.604Z,1018.13
2016-09-26T01:24:26.602Z,1018.11
2016-09-26T01:24:36.596Z,1018.15
2016-09-26T01:24:46.936Z,1018.18
2016-09-26T01:24:56.588Z,1018.17
2016-09-26T01:25:06.582Z,1018.11
2016-09-26T01:25:16.577Z,1018.11
2016-09-26T01:25:26.572Z,1018.1
2016-09-26T01:25:36.569Z,1018.12
2016-09-26T01:25:46.563Z,1018.14
2016-09-26T01:25:56.557Z,1018.11
2016-09-26T01:26:06.552Z,1018.13
2016-09-26T01:26:16.549Z,1018.12
2016-09-26T01:26:26.544Z,1018.15
2016-09-26T01:26:36.540Z,1018.14
2016-09-26T01:26:46.532Z,1018.08
2016-09-26T01:26:56.529Z,1018.13
2016-09-26T01:27:06.523Z,1018.16
2016-09-26T01:27:16.529Z,1018.1
2016-09-26T01:27:26.513Z,1018.13
2016-09-26T01:27:36.510Z,1018.17
2016-09-26T01:27:46.504Z,1018.12
2016-09-26T01:27:56.507Z,1018.16
2016-09-26T01:28:06.493Z,1018.17
2016-09-26T01:28:16.501Z,1018.2
2016-09-26T01:28:26.485Z,1018.15
2016-09-26T01:28:36.479Z,1018.16
2016-09-26T01:28:46.475Z,1018.15
2016-09-26T01:28:56.470Z,1018.2
2016-09-26T01:29:06.464Z,1018.16
2016-09-26T01:29:16.460Z,1018.14
2016-09-26T01:29:26.455Z,1018.16
2016-09-26T01:29:36.450Z,1018.18
2016-09-26T01:29:46.445Z,1018.16
2016-09-26T01:29:56.441Z,1018.18
2016-09-26T01:30:06.441Z,1018.14
2016-09-26T01:30:16.432Z,1018.16
2016-09-26T01:30:26.426Z,1018.18
2016-09-26T01:30:36.421Z,1018.16
2016-09-26T01:30:46.417Z,1018.21
2016-09-26T01:30:56.411Z,1018.18
2016-09-26T01:31:06.406Z,1018.15
2016-09-26T01:31:16.399Z,1018.16
2016-09-26T01:31:26.399Z,1018.11
2016-09-26T01:31:36.393Z,1018.14
2016-09-26T01:31:46.389Z,1018.16
2016-09-26T01:31:56.729Z,1018.12
2016-09-26T01:32:06.377Z,1018.15
2016-09-26T01:32:16.374Z,1018.16
2016-09-26T01:32:26.369Z,1018.14
2016-09-26T01:32:36.363Z,1018.17
2016-09-26T01:32:46.358Z,1018.14
2016-09-26T01:32:56.352Z,1018.13
2016-09-26T01:33:06.346Z,1018.17
2016-09-26T01:33:16.343Z,1018.12
2016-09-26T01:33:26.336Z,1018.09
2016-09-26T01:33:36.334Z,1018.13
2016-09-26T01:33:46.328Z,1018.21
2016-09-26T01:33:56.324Z,1018.14
2016-09-26T01:34:06.317Z,1018.14
2016-09-26T01:34:16.317Z,1018.16
2016-09-26T01:34:26.306Z,1018.15
2016-09-26T01:34:36.303Z,1018.14
2016-09-26T01:34:46.300Z,1018.11
2016-09-26T01:34:56.295Z,1018.13
2016-09-26T01:35:06.289Z,1018.15
2016-09-26T01:35:16.285Z,1018.14
2016-09-26T01:35:26.280Z,1018.15
2016-09-26T01:35:36.275Z,1018.2
2016-09-26T01:35:46.268Z,1018.14
2016-09-26T01:35:56.265Z,1018.12
2016-09-26T01:36:06.267Z,1018.11
2016-09-26T01:36:16.256Z,1018.12
2016-09-26T01:36:26.250Z,1018.17
2016-09-26T01:36:36.246Z,1018.14
2016-09-26T01:36:46.241Z,1018.12
2016-09-26T01:36:56.235Z,1018.12
2016-09-26T01:37:06.230Z,1018.1
2016-09-26T01:37:16.226Z,1018.1
2016-09-26T01:37:26.220Z,1018.13
2016-09-26T01:37:36.214Z,1018.09
2016-09-26T01:37:46.211Z,1018.09
2016-09-26T01:37:56.206Z,1018.15
2016-09-26T01:38:06.202Z,1018.12
2016-09-26T01:38:16.199Z,1018.12
2016-09-26T01:38:26.190Z,1018.13
2016-09-26T01:38:36.186Z,1018.09
2016-09-26T01:38:46.182Z,1018.11
2016-09-26T01:38:56.177Z,1018.14
2016-09-26T01:39:06.172Z,1018.09
2016-09-26T01:39:16.167Z,1018.08
2016-09-26T01:39:26.165Z,1018.11
2016-09-26T01:39:36.158Z,1018.08
2016-09-26T01:39:46.153Z,1018.1
2016-09-26T01:39:56.148Z,1018.08
2016-09-26T01:40:06.142Z,1018.12
2016-09-26T01:40:16.138Z,1018.06
2016-09-26T01:40:26.132Z,1018.1
2016-09-26T01:40:36.128Z,1018.14
2016-09-26T01:40:46.124Z,1018.1
2016-09-26T01:40:56.118Z,1018.09
2016-09-26T01:41:06.112Z,1018.13
2016-09-26T01:41:16.110Z,1018.09
2016-09-26T01:41:26.104Z,1018.11
2016-09-26T01:41:36.098Z,1018.14
2016-09-26T01:41:46.093Z,1018.1
2016-09-26T01:41:56.089Z,1018.13
2016-09-26T01:42:06.082Z,1018.12
2016-09-26T01:42:16.079Z,1018.1
2016-09-26T01:42:26.073Z,1018.13
2016-09-26T01:42:36.069Z,1018.15
2016-09-26T01:42:46.064Z,1018.13
2016-09-26T01:42:56.060Z,1018.07
2016-09-26T01:43:06.056Z,1018.07
2016-09-26T01:43:16.051Z,1018.09
2016-09-26T01:43:26.045Z,1018.08
2016-09-26T01:43:36.041Z,1018.13
2016-09-26T01:43:46.036Z,1018.08
2016-09-26T01:43:56.033Z,1018.13
2016-09-26T01:44:06.026Z,1018.14
2016-09-26T01:44:16.022Z,1018.11
2016-09-26T01:44:26.020Z,1018.1
2016-09-26T01:44:36.012Z,1018.08
2016-09-26T01:44:46.005Z,1018.08
2016-09-26T01:44:56.003Z,1018.12
2016-09-26T01:45:05.996Z,1018.09
2016-09-26T01:45:15.992Z,1018.12
2016-09-26T01:45:25.985Z,1018.13
2016-09-26T01:45:35.982Z,1018.08
2016-09-26T01:45:45.978Z,1018.14
2016-09-26T01:45:55.973Z,1018.12
2016-09-26T01:46:05.968Z,1018.1
2016-09-26T01:46:15.963Z,1018.09
2016-09-26T01:46:25.956Z,1018.11
2016-09-26T01:46:36.313Z,1018.12
2016-09-26T01:46:45.948Z,1018.15
2016-09-26T01:46:55.942Z,1018.13
2016-09-26T01:47:05.937Z,1018.11
2016-09-26T01:47:15.934Z,1018.14
2016-09-26T01:47:25.930Z,1018.14
2016-09-26T01:47:35.929Z,1018.1
2016-09-26T01:47:45.918Z,1018.14
2016-09-26T01:47:55.914Z,1018.12
2016-09-26T01:48:05.909Z,1018.12
2016-09-26T01:48:15.901Z,1018.17
2016-09-26T01:48:25.899Z,1018.1
2016-09-26T01:48:35.893Z,1018.12
2016-09-26T01:48:45.889Z,1018.09
2016-09-26T01:48:55.885Z,1018.09
2016-09-26T01:49:05.880Z,1018.12
2016-09-26T01:49:15.875Z,1018.11
2016-09-26T01:49:25.871Z,1018.11
2016-09-26T01:49:35.864Z,1018.08
2016-09-26T01:49:45.861Z,1018.1
2016-09-26T01:49:55.856Z,1018.11
2016-09-26T01:50:05.850Z,1018.07
2016-09-26T01:50:15.845Z,1018.07
2016-09-26T01:50:25.840Z,1018.11
2016-09-26T01:50:35.834Z,1018.13
2016-09-26T01:50:45.832Z,1018.09
2016-09-26T01:50:55.831Z,1018.09
2016-09-26T01:51:05.821Z,1018.08
2016-09-26T01:51:15.816Z,1018.1
2016-09-26T01:51:25.810Z,1018.12
2016-09-26T01:51:35.806Z,1018.15
2016-09-26T01:51:45.801Z,1018.13
2016-09-26T01:51:55.795Z,1018.14
2016-09-26T01:52:05.790Z,1018.14
2016-09-26T01:52:15.786Z,1018.11
2016-09-26T01:52:25.784Z,1018.1
2016-09-26T01:52:35.775Z,1018.11
2016-09-26T01:52:45.777Z,1018.16
2016-09-26T01:52:55.766Z,1018.09
2016-09-26T01:53:05.763Z,1018.1
2016-09-26T01:53:15.761Z,1018.13
2016-09-26T01:53:25.752Z,1018.15
2016-09-26T01:53:35.747Z,1018.15
2016-09-26T01:53:45.743Z,1018.13
2016-09-26T01:53:55.737Z,1018.13
2016-09-26T01:54:05.734Z,1018.08
2016-09-26T01:54:15.730Z,1018.1
2016-09-26T01:54:25.722Z,1018.12
2016-09-26T01:54:35.719Z,1018.09
2016-09-26T01:54:45.720Z,1018.14
2016-09-26T01:54:55.708Z,1018.09
2016-09-26T01:55:05.703Z,1018.13
2016-09-26T01:55:15.699Z,1018.13
2016-09-26T01:55:25.695Z,1018.15
2016-09-26T01:55:35.689Z,1018.15
2016-09-26T01:55:45.685Z,1018.14
2016-09-26T01:55:55.679Z,1018.11
2016-09-26T01:56:05.675Z,1018.17
2016-09-26T01:56:15.670Z,1018.16
2016-09-26T01:56:25.665Z,1018.11
2016-09-26T01:56:35.659Z,1018.12
2016-09-26T01:56:45.655Z,1018.19
2016-09-26T01:56:55.651Z,1018.11
2016-09-26T01:57:05.644Z,1018.14
2016-09-26T01:57:15.644Z,1018.14
2016-09-26T01:57:25.635Z,1018.11
2016-09-26T01:57:35.629Z,1018.1
2016-09-26T01:57:45.624Z,1018.12
2016-09-26T01:57:55.620Z,1018.07
2016-09-26T01:58:05.615Z,1018.09
2016-09-26T01:58:15.610Z,1018.09
2016-09-26T01:58:25.605Z,1018.11
2016-09-26T01:58:35.601Z,1018.13
2016-09-26T01:58:45.595Z,1018.13
2016-09-26T01:58:55.591Z,1018.14
2016-09-26T01:59:05.587Z,1018.15
2016-09-26T01:59:15.583Z,1018.15
2016-09-26T01:59:25.580Z,1018.07
2016-09-26T01:59:35.586Z,1018.1
2016-09-26T01:59:45.567Z,1018.1
2016-09-26T01:59:55.563Z,1018.17
2016-09-26T02:00:05.557Z,1018.1
2016-09-26T02:00:15.550Z,1018.13
2016-09-26T02:00:25.549Z,1018.16
2016-09-26T02:00:35.541Z,1018.14
2016-09-26T02:00:45.537Z,1018.13
2016-09-26T02:00:55.535Z,1018.11
2016-09-26T02:01:05.528Z,1018.1
2016-09-26T02:01:15.521Z,1018.09
2016-09-26T02:01:25.517Z,1018.13